PASC

Deadhorse Airport

Deadhorse, Alaska, USA
PASC 221149Z 2212/2312 04004KT 5SM BR OVC005 TEMPO 2212/2215 2SM BR BKN005 FM221800 09008KT 4SM BR OVC005 FM230400 08010KT 5SM BR SCT005
Issued Valid From Valid To
Jan-22 @ 11:49 UTC
(6 hours ago)
Jan-22 @ 12:00 UTC
(5 hours ago)
Jan-23 @ 12:00 UTC
(in 19 hours)
Jan-22 @ 12:00 to Jan-22 @ 18:00
PASC 221149Z 2212/2312 04004KT 5SM BR OVC005
Wind Visibility Clouds Conditions
40° at 4 knots 5 miles
  • Overcast at 500' AGL
  • Mist
Expired Click to View Jan-22 @ 12:00 to Jan-22 @ 15:00
TEMPO 2212/2215 2SM BR BKN005
Visibility Clouds Conditions
2 miles
  • Broken at 500' AGL
  • Mist
From Jan-22 @ 18:00 to Jan-23 @ 04:00
FM221800 09008KT 4SM BR OVC005
Wind Visibility Clouds Conditions
90° at 8 knots 4 miles
  • Overcast at 500' AGL
  • Mist
From Jan-23 @ 04:00 to Jan-23 @ 12:00
FM230400 08010KT 5SM BR SCT005
Wind Visibility Clouds Conditions
80° at 10 knots 5 miles
  • Scattered at 500' AGL
  • Mist
PASC 221149Z 2212/2312 04004KT 5SM BR OVC005 TEMPO 2212/2215 2SM BR BKN005 FM221800 09008KT 4SM BR OVC005 FM230400 08010KT 5SM BR SCT005
Issued Jan-22 @ 11:49 UTC
(6 hours ago)
Valid From Jan-22 @ 12:00 UTC
(5 hours ago)
Valid To Jan-23 @ 12:00 UTC
(in 19 hours)
Jan-22 @ 12:00 - Jan-22 @ 18:00
Wind Visibility
40° at 4 knots 5 miles
Clouds
  • Overcast at 500' AGL
Conditions
  • Mist
Jan-22 @ 12:00 - Jan-22 @ 15:00
Clouds
  • Broken at 500' AGL
Conditions
  • Mist
From Jan-22 @ 18:00 - Jan-23 @ 04:00
Wind Visibility
90° at 8 knots 4 miles
Clouds
  • Overcast at 500' AGL
Conditions
  • Mist
From Jan-23 @ 04:00 - Jan-23 @ 12:00
Wind Visibility
80° at 10 knots 5 miles
Clouds
  • Scattered at 500' AGL
Conditions
  • Mist